createdAt,value
2018-12-13T00:00:36.267Z,97488.02
2018-12-13T00:03:07.652Z,97483.13
2018-12-13T00:05:39.049Z,97490.20
2018-12-13T00:08:09.102Z,97490.20
2018-12-13T00:10:38.529Z,97481.78
2018-12-13T00:13:08.047Z,97476.41
2018-12-13T00:15:37.448Z,97479.56
2018-12-13T00:18:06.883Z,97477.86
2018-12-13T00:20:36.283Z,97479.67
2018-12-13T00:23:05.670Z,97474.66
2018-12-13T00:25:35.200Z,97484.17
2018-12-13T00:28:04.552Z,97477.92
2018-12-13T00:30:33.924Z,97477.92
2018-12-13T00:33:03.320Z,97480.25
2018-12-13T00:35:32.666Z,97479.84
2018-12-13T00:38:02.151Z,97467.19
2018-12-13T00:40:31.565Z,97475.75
2018-12-13T00:43:01.229Z,97471.72
2018-12-13T00:45:30.585Z,97469.50
2018-12-13T00:48:00.416Z,97471.31
2018-12-13T00:50:29.841Z,97472.66
2018-12-13T00:52:59.563Z,97474.98
2018-12-13T00:55:29.053Z,97473.23
2018-12-13T00:57:58.608Z,97475.45
2018-12-13T01:00:28.599Z,97476.33
2018-12-13T01:02:58.179Z,97477.70
2018-12-13T01:05:27.528Z,97475.59
2018-12-13T01:07:57.191Z,97482.31
2018-12-13T01:10:26.568Z,97477.44
2018-12-13T01:12:56.724Z,97477.52
2018-12-13T01:15:28.284Z,97482.89
2018-12-13T01:17:57.636Z,97481.55
2018-12-13T01:20:26.989Z,97483.39
2018-12-13T01:22:56.352Z,97481.65
2018-12-13T01:25:25.688Z,97479.94
2018-12-13T01:27:55.051Z,97476.75
2018-12-13T01:30:24.471Z,97480.41
2018-12-13T01:32:53.800Z,97475.04
2018-12-13T01:35:23.158Z,97478.20
2018-12-13T01:37:52.503Z,97476.56
2018-12-13T01:40:21.859Z,97469.84
2018-12-13T01:42:51.179Z,97470.25
2018-12-13T01:45:20.516Z,97469.77
2018-12-13T01:47:49.852Z,97472.94
2018-12-13T01:50:19.200Z,97465.34
2018-12-13T01:52:51.491Z,97461.31
2018-12-13T01:55:20.831Z,97467.09
2018-12-13T01:57:50.155Z,97464.00
2018-12-13T02:00:19.505Z,97462.77
2018-12-13T02:02:48.828Z,97464.41
2018-12-13T02:05:18.171Z,97456.52
2018-12-13T02:07:48.542Z,97456.52
2018-12-13T02:10:17.872Z,97458.73
2018-12-13T02:12:47.212Z,97451.62
2018-12-13T02:15:17.575Z,97445.89
2018-12-13T02:17:46.904Z,97445.89
2018-12-13T02:20:16.232Z,97438.41
2018-12-13T02:22:46.561Z,97445.02
2018-12-13T02:25:15.899Z,97437.94
2018-12-13T02:27:45.219Z,97441.97
2018-12-13T02:30:14.740Z,97432.56
2018-12-13T02:32:44.076Z,97438.41
2018-12-13T02:35:13.490Z,97429.95
2018-12-13T02:37:42.830Z,97441.20
2018-12-13T02:40:12.168Z,97433.14
2018-12-13T02:42:41.499Z,97427.77
2018-12-13T02:45:10.862Z,97432.74
2018-12-13T02:47:40.243Z,97429.19
2018-12-13T02:50:09.582Z,97429.19
2018-12-13T02:52:38.981Z,97431.03
2018-12-13T02:55:08.337Z,97429.77
2018-12-13T02:57:37.706Z,97420.36
2018-12-13T03:00:08.057Z,97421.34
2018-12-13T03:02:39.458Z,97422.28
2018-12-13T03:05:08.815Z,97417.42
2018-12-13T03:07:38.180Z,97420.11
2018-12-13T03:10:07.522Z,97429.58
2018-12-13T03:12:36.884Z,97416.47
2018-12-13T03:15:06.219Z,97421.92
2018-12-13T03:17:35.557Z,97421.62
2018-12-13T03:20:05.188Z,97418.84
2018-12-13T03:22:34.553Z,97424.71
2018-12-13T03:25:03.880Z,97425.55
2018-12-13T03:27:33.251Z,97428.80
2018-12-13T03:30:02.582Z,97426.13
2018-12-13T03:32:31.966Z,97417.70
2018-12-13T03:35:01.294Z,97414.15
2018-12-13T03:37:30.649Z,97415.02
2018-12-13T03:39:59.959Z,97411.36
2018-12-13T03:42:29.628Z,97397.19
2018-12-13T03:44:58.952Z,97408.02
2018-12-13T03:47:28.268Z,97404.86
2018-12-13T03:49:57.591Z,97405.22
2018-12-13T03:52:26.912Z,97401.98
2018-12-13T03:54:56.276Z,97404.38
2018-12-13T03:57:25.659Z,97408.48
2018-12-13T03:59:55.024Z,97412.72
2018-12-13T04:02:24.361Z,97409.64
2018-12-13T04:04:53.700Z,97410.21
2018-12-13T04:07:27.701Z,97415.58
2018-12-13T04:09:54.425Z,97417.80
2018-12-13T04:12:23.747Z,97404.77
2018-12-13T04:14:53.105Z,97410.21
2018-12-13T04:17:22.428Z,97415.11
2018-12-13T04:19:53.801Z,97420.48
2018-12-13T04:22:23.136Z,97408.80
2018-12-13T04:24:52.508Z,97407.45
2018-12-13T04:27:21.828Z,97399.88
2018-12-13T04:29:51.187Z,97403.50
2018-12-13T04:32:20.527Z,97398.13
2018-12-13T04:34:49.871Z,97393.73
2018-12-13T04:37:19.222Z,97392.87
2018-12-13T04:39:48.571Z,97396.89
2018-12-13T04:42:17.902Z,97392.00
2018-12-13T04:44:47.259Z,97389.81
2018-12-13T04:47:16.588Z,97385.28
2018-12-13T04:49:45.929Z,97387.60
2018-12-13T04:52:15.288Z,97382.98
2018-12-13T04:54:44.632Z,97393.45
2018-12-13T04:57:13.997Z,97397.47
2018-12-13T04:59:43.312Z,97386.73
2018-12-13T05:02:12.630Z,97393.45
2018-12-13T05:04:42.042Z,97390.39
2018-12-13T05:07:11.530Z,97393.08
2018-12-13T05:09:40.926Z,97394.49
2018-12-13T05:12:10.264Z,97386.08
2018-12-13T05:14:39.611Z,97394.49
2018-12-13T05:17:08.950Z,97394.02
2018-12-13T05:19:38.287Z,97395.94
2018-12-13T05:22:07.691Z,97390.20
2018-12-13T05:24:37.035Z,97396.91
2018-12-13T05:27:06.396Z,97398.62
2018-12-13T05:29:35.736Z,97394.30
2018-12-13T05:32:05.785Z,97397.38
2018-12-13T05:34:35.116Z,97392.02
2018-12-13T05:37:04.472Z,97386.65
2018-12-13T05:39:33.813Z,97391.14
2018-12-13T05:42:03.164Z,97393.36
2018-12-13T05:44:32.488Z,97393.36
2018-12-13T05:47:01.848Z,97391.55
2018-12-13T05:49:31.180Z,97387.88
2018-12-13T05:52:00.526Z,97391.44
2018-12-13T05:54:29.987Z,97395.58
2018-12-13T05:56:59.302Z,97396.70
2018-12-13T05:59:28.652Z,97402.17
2018-12-13T06:01:57.980Z,97390.27
2018-12-13T06:04:27.332Z,97402.07
2018-12-13T06:06:56.724Z,97399.86
2018-12-13T06:09:26.099Z,97400.26
2018-12-13T06:11:55.463Z,97401.78
2018-12-13T06:14:24.800Z,97403.91
2018-12-13T06:16:54.146Z,97405.62
2018-12-13T06:19:26.652Z,97407.25
2018-12-13T06:21:54.866Z,97406.18
2018-12-13T06:24:24.216Z,97406.69
2018-12-13T06:26:53.549Z,97413.76
2018-12-13T06:29:22.915Z,97408.50
2018-12-13T06:31:52.240Z,97414.16
2018-12-13T06:34:21.583Z,97423.05
2018-12-13T06:36:50.920Z,97419.89
2018-12-13T06:39:20.266Z,97418.45
2018-12-13T06:41:49.608Z,97425.92
2018-12-13T06:44:18.980Z,97421.44
2018-12-13T06:46:48.312Z,97423.64
2018-12-13T06:49:17.697Z,97424.52
2018-12-13T06:51:47.058Z,97427.56
2018-12-13T06:54:16.395Z,97431.99
2018-12-13T06:56:45.740Z,97431.02
2018-12-13T06:59:15.069Z,97431.42
2018-12-13T07:01:44.400Z,97434.47
2018-12-13T07:04:13.728Z,97429.10
2018-12-13T07:06:43.072Z,97434.88
2018-12-13T07:09:12.416Z,97437.92
2018-12-13T07:11:41.798Z,97437.45
2018-12-13T07:14:11.148Z,97430.27
2018-12-13T07:16:40.572Z,97431.11
2018-12-13T07:19:09.896Z,97442.72
2018-12-13T07:21:39.300Z,97441.20
2018-12-13T07:24:08.616Z,97443.95
2018-12-13T07:26:44.331Z,97444.36
2018-12-13T07:29:13.748Z,97443.95
2018-12-13T07:31:43.096Z,97450.96
2018-12-13T07:34:12.434Z,97455.45
2018-12-13T07:36:41.839Z,97454.12
2018-12-13T07:39:11.228Z,97456.63
2018-12-13T07:41:41.628Z,97452.60
2018-12-13T07:44:10.952Z,97451.26
2018-12-13T07:46:40.332Z,97452.50
2018-12-13T07:49:09.669Z,97451.55
2018-12-13T07:51:39.032Z,97445.21
2018-12-13T07:54:08.372Z,97443.50
2018-12-13T07:56:37.772Z,97445.69
2018-12-13T07:59:07.093Z,97445.69
2018-12-13T08:01:36.452Z,97442.42
2018-12-13T08:04:05.799Z,97443.30
2018-12-13T08:06:35.128Z,97443.30
2018-12-13T08:09:05.474Z,97443.70
2018-12-13T08:11:35.929Z,97445.88
2018-12-13T08:14:05.341Z,97439.16
2018-12-13T08:16:34.673Z,97437.35
2018-12-13T08:19:06.015Z,97440.50
2018-12-13T08:21:37.372Z,97437.35
2018-12-13T08:24:06.715Z,97437.75
2018-12-13T08:26:37.168Z,97438.12
2018-12-13T08:29:06.489Z,97440.80
2018-12-13T08:31:35.877Z,97436.78
2018-12-13T08:34:05.199Z,97436.78
2018-12-13T08:36:34.577Z,97445.59
2018-12-13T08:39:05.747Z,97440.63
2018-12-13T08:41:36.215Z,97443.78
2018-12-13T08:44:07.547Z,97441.09
2018-12-13T08:46:36.890Z,97443.68
2018-12-13T08:49:06.267Z,97437.07
2018-12-13T08:51:35.676Z,97443.20
2018-12-13T08:54:05.113Z,97445.49
2018-12-13T08:56:34.499Z,97445.02
2018-12-13T08:59:03.847Z,97447.70
2018-12-13T09:01:33.200Z,97435.91
2018-12-13T09:04:02.611Z,97443.58
2018-12-13T09:06:31.943Z,97448.11
2018-12-13T09:09:01.280Z,97448.47
2018-12-13T09:11:30.628Z,97447.60
2018-12-13T09:14:00.860Z,97448.88
2018-12-13T09:16:31.580Z,97444.45
2018-12-13T09:19:01.208Z,97441.76
2018-12-13T09:21:30.587Z,97448.88
2018-12-13T09:23:59.908Z,97452.39
2018-12-13T09:26:29.276Z,97454.72
2018-12-13T09:28:58.611Z,97443.97
2018-12-13T09:31:27.952Z,97444.34
2018-12-13T09:33:57.285Z,97449.23
2018-12-13T09:36:26.660Z,97445.21
2018-12-13T09:38:55.992Z,97440.24
2018-12-13T09:41:25.364Z,97438.91
2018-12-13T09:43:54.736Z,97435.34
2018-12-13T09:46:24.119Z,97434.37
2018-12-13T09:48:53.469Z,97437.92
2018-12-13T09:51:23.447Z,97434.77
2018-12-13T09:53:52.788Z,97428.05
2018-12-13T09:56:22.310Z,97421.34
2018-12-13T09:58:51.654Z,97416.84
2018-12-13T10:01:21.027Z,97421.12
2018-12-13T10:03:50.964Z,97420.77
2018-12-13T10:06:20.336Z,97416.27
2018-12-13T10:08:49.748Z,97415.39
2018-12-13T10:11:19.110Z,97417.78
2018-12-13T10:13:48.440Z,97419.42
2018-12-13T10:16:17.768Z,97413.08
2018-12-13T10:18:47.106Z,97414.81
2018-12-13T10:21:16.476Z,97414.42
2018-12-13T10:23:45.842Z,97419.31
2018-12-13T10:26:15.184Z,97411.36
2018-12-13T10:28:44.544Z,97411.27
2018-12-13T10:31:13.889Z,97412.50
2018-12-13T10:33:43.290Z,97407.63
2018-12-13T10:36:12.740Z,97407.63
2018-12-13T10:38:42.108Z,97403.10
2018-12-13T10:41:11.468Z,97409.34
2018-12-13T10:43:40.820Z,97408.47
2018-12-13T10:46:10.173Z,97406.19
2018-12-13T10:48:40.018Z,97405.78
2018-12-13T10:51:09.375Z,97400.92
2018-12-13T10:53:38.712Z,97399.07
2018-12-13T10:56:08.049Z,97391.02
2018-12-13T10:58:37.467Z,97389.31
2018-12-13T11:01:12.136Z,97388.33
2018-12-13T11:03:41.479Z,97393.70
2018-12-13T11:06:10.833Z,97393.23
2018-12-13T11:08:40.218Z,97386.05
2018-12-13T11:11:09.571Z,97387.86
2018-12-13T11:13:39.006Z,97388.73
2018-12-13T11:16:08.425Z,97386.52
2018-12-13T11:18:37.832Z,97390.94
2018-12-13T11:21:07.159Z,97382.38
2018-12-13T11:23:36.485Z,97387.75
2018-12-13T11:26:05.823Z,97379.33
2018-12-13T11:29:15.637Z,97377.88
2018-12-13T11:31:45.947Z,97382.38
2018-12-13T11:34:15.394Z,97380.56
2018-12-13T11:36:44.801Z,97371.16
2018-12-13T11:39:14.153Z,97377.02
2018-12-13T11:41:43.500Z,97368.95
2018-12-13T11:44:12.949Z,97362.53
2018-12-13T11:46:42.305Z,97361.48
2018-12-13T11:49:12.305Z,97363.59
2018-12-13T11:51:41.863Z,97357.23
2018-12-13T11:54:47.581Z,97354.95
2018-12-13T11:57:17.064Z,97356.66
2018-12-13T11:59:46.446Z,97356.66
2018-12-13T12:02:15.848Z,97354.37
2018-12-13T12:04:45.176Z,97349.36
2018-12-13T12:07:14.535Z,97355.49
2018-12-13T12:09:43.911Z,97354.15
2018-12-13T12:12:13.240Z,97352.77
2018-12-13T12:14:42.620Z,97343.36
2018-12-13T12:17:11.988Z,97341.52
2018-12-13T12:19:41.383Z,97340.28
2018-12-13T12:22:10.812Z,97343.36
2018-12-13T12:24:40.572Z,97336.69
2018-12-13T12:27:09.923Z,97333.09
2018-12-13T12:29:39.951Z,97332.22
2018-12-13T12:32:09.307Z,97334.00
2018-12-13T12:34:38.851Z,97331.64
2018-12-13T12:37:08.298Z,97334.80
2018-12-13T12:39:37.690Z,97331.17
2018-12-13T12:42:07.100Z,97338.36
2018-12-13T12:44:38.519Z,97334.80
2018-12-13T12:47:07.865Z,97336.14
2018-12-13T12:49:37.239Z,97337.41
2018-12-13T12:52:06.838Z,97331.17
2018-12-13T12:54:36.201Z,97329.83
2018-12-13T12:57:05.561Z,97328.01
2018-12-13T12:59:34.940Z,97329.83
2018-12-13T13:02:04.303Z,97319.45
2018-12-13T13:04:33.663Z,97316.76
2018-12-13T13:07:03.028Z,97322.64
2018-12-13T13:09:32.344Z,97316.39
2018-12-13T13:12:01.699Z,97320.31
2018-12-13T13:14:31.016Z,97315.92
2018-12-13T13:17:00.376Z,97317.16
2018-12-13T13:19:29.693Z,97323.47
2018-12-13T13:21:59.039Z,97315.41
2018-12-13T13:24:28.370Z,97324.81
2018-12-13T13:26:57.782Z,97332.04
2018-12-13T13:29:27.107Z,97324.45
2018-12-13T13:31:56.444Z,97321.77
2018-12-13T13:34:25.759Z,97325.80
2018-12-13T13:36:55.115Z,97327.61
2018-12-13T13:39:24.429Z,97329.42
2018-12-13T13:41:53.788Z,97336.14
2018-12-13T13:44:25.167Z,97327.72
2018-12-13T13:46:54.556Z,97330.30
2018-12-13T13:49:23.868Z,97330.77
2018-12-13T13:51:53.300Z,97331.75
2018-12-13T13:54:22.617Z,97326.45
2018-12-13T13:56:52.040Z,97325.51
2018-12-13T13:59:21.373Z,97328.59
2018-12-13T14:01:50.710Z,97327.40
2018-12-13T14:04:20.027Z,97327.29
2018-12-13T14:06:50.019Z,97327.88
2018-12-13T14:09:19.369Z,97325.69
2018-12-13T14:11:48.697Z,97329.61
2018-12-13T14:14:18.059Z,97324.35
2018-12-13T14:16:47.380Z,97327.51
2018-12-13T14:19:16.704Z,97322.61
2018-12-13T14:21:46.027Z,97323.95
2018-12-13T14:24:15.359Z,97323.01
2018-12-13T14:26:44.723Z,97320.80
2018-12-13T14:29:14.077Z,97318.58
2018-12-13T14:31:43.574Z,97312.84
2018-12-13T14:34:12.932Z,97318.58
2018-12-13T14:36:42.254Z,97320.39
2018-12-13T14:39:11.608Z,97326.64
2018-12-13T14:41:42.968Z,97331.64
2018-12-13T14:44:15.172Z,97331.64
2018-12-13T14:46:46.702Z,97327.22
2018-12-13T14:49:16.054Z,97331.72
2018-12-13T14:51:45.392Z,97334.41
2018-12-13T14:54:14.723Z,97334.41
2018-12-13T14:56:44.776Z,97335.75
2018-12-13T14:59:14.101Z,97322.91
2018-12-13T15:01:43.504Z,97334.41
2018-12-13T15:04:12.831Z,97333.57
2018-12-13T15:06:42.172Z,97326.35
2018-12-13T15:09:11.491Z,97325.12
2018-12-13T15:11:43.922Z,97315.35
2018-12-13T15:14:13.353Z,97317.53
2018-12-13T15:16:43.061Z,97317.92
2018-12-13T15:19:12.379Z,97319.75
2018-12-13T15:21:41.729Z,97325.98
2018-12-13T15:24:11.055Z,97322.06
2018-12-13T15:26:40.383Z,97323.41
2018-12-13T15:29:09.731Z,97333.64
2018-12-13T15:31:39.064Z,97328.78
2018-12-13T15:34:08.546Z,97325.23
2018-12-13T15:36:37.879Z,97329.25
2018-12-13T15:39:07.754Z,97328.49
2018-12-13T15:41:38.209Z,97326.75
2018-12-13T15:44:07.548Z,97323.13
2018-12-13T15:46:36.868Z,97326.28
2018-12-13T15:49:06.228Z,97332.52
2018-12-13T15:51:35.561Z,97332.41
2018-12-13T15:54:04.954Z,97331.17
2018-12-13T15:56:34.291Z,97327.04
2018-12-13T15:59:03.648Z,97327.04
2018-12-13T16:01:32.970Z,97336.44
2018-12-13T16:04:02.689Z,97338.25
2018-12-13T16:06:32.030Z,97341.81
2018-12-13T16:09:01.369Z,97338.00
2018-12-13T16:11:32.715Z,97337.02
2018-12-13T16:14:02.083Z,97340.18
2018-12-13T16:16:31.419Z,97331.65
2018-12-13T16:19:00.756Z,97332.13
2018-12-13T16:21:30.120Z,97329.94
2018-12-13T16:23:59.475Z,97337.49
2018-12-13T16:26:28.844Z,97331.17
2018-12-13T16:28:58.238Z,97333.75
2018-12-13T16:31:27.571Z,97326.75
2018-12-13T16:33:56.880Z,97322.83
2018-12-13T16:36:26.220Z,97323.81
2018-12-13T16:38:55.536Z,97327.26
2018-12-13T16:41:25.018Z,97328.09
2018-12-13T16:43:54.492Z,97321.96
2018-12-13T16:46:23.872Z,97328.31
2018-12-13T16:48:53.197Z,97328.20
2018-12-13T16:51:23.204Z,97332.70
2018-12-13T16:53:53.260Z,97330.89
2018-12-13T16:56:23.304Z,97326.86
2018-12-13T16:58:53.056Z,97330.41
2018-12-13T17:01:22.924Z,97331.17
2018-12-13T17:03:52.324Z,97335.20
2018-12-13T17:06:21.696Z,97331.06
2018-12-13T17:08:51.038Z,97338.65
2018-12-13T17:11:20.408Z,97339.99
2018-12-13T17:13:49.767Z,97341.81
2018-12-13T17:16:19.092Z,97344.02
2018-12-13T17:18:48.465Z,97340.58
2018-12-13T17:21:17.836Z,97343.08
2018-12-13T17:23:47.220Z,97343.95
2018-12-13T17:26:16.605Z,97346.13
2018-12-13T17:28:46.011Z,97340.76
2018-12-13T17:31:15.484Z,97340.69
2018-12-13T17:33:45.189Z,97334.80
2018-12-13T17:36:15.598Z,97339.34
2018-12-13T17:38:45.020Z,97335.20
2018-12-13T17:41:14.422Z,97337.89
2018-12-13T17:43:44.769Z,97339.59
2018-12-13T17:46:15.208Z,97338.65
2018-12-13T17:48:44.769Z,97340.36
2018-12-13T17:51:14.841Z,97343.05
2018-12-13T17:53:44.616Z,97347.08
2018-12-13T17:56:17.707Z,97349.28
2018-12-13T17:58:47.175Z,97348.81
2018-12-13T18:01:16.776Z,97348.81
2018-12-13T18:03:47.957Z,97346.13
2018-12-13T18:06:17.347Z,97345.15
2018-12-13T18:08:47.481Z,97340.65
2018-12-13T18:11:16.874Z,97347.25
2018-12-13T18:13:47.350Z,97346.78
2018-12-13T18:16:16.813Z,97345.91
2018-12-13T18:18:47.141Z,97346.78
2018-12-13T18:21:20.424Z,97353.89
2018-12-13T18:23:49.880Z,97351.20
2018-12-13T18:26:19.276Z,97349.87
2018-12-13T18:28:50.190Z,97358.77
2018-12-13T18:31:19.854Z,97353.97
2018-12-13T18:33:49.378Z,97354.84
2018-12-13T18:36:19.785Z,97353.39
2018-12-13T18:38:49.762Z,97349.76
2018-12-13T18:41:19.175Z,97354.15
2018-12-13T18:43:48.653Z,97358.61
2018-12-13T18:46:18.085Z,97350.08
2018-12-13T18:48:47.462Z,97350.84
2018-12-13T18:51:16.885Z,97346.23
2018-12-13T18:53:46.968Z,97342.20
2018-12-13T18:56:16.491Z,97351.49
2018-12-13T18:58:45.856Z,97351.86
2018-12-13T19:01:15.376Z,97351.86
2018-12-13T19:03:44.829Z,97353.20
2018-12-13T19:06:14.302Z,97352.84
2018-12-13T19:08:44.504Z,97347.36
2018-12-13T19:11:15.173Z,97350.52
2018-12-13T19:13:44.536Z,97350.91
2018-12-13T19:16:13.935Z,97356.65
2018-12-13T19:18:44.162Z,97356.28
2018-12-13T19:21:15.844Z,97358.39
2018-12-13T19:23:45.252Z,97363.18
2018-12-13T19:26:14.660Z,97361.84
2018-12-13T19:28:44.207Z,97362.78
2018-12-13T19:31:15.503Z,97360.49
2018-12-13T19:33:44.879Z,97360.49
2018-12-13T19:36:15.343Z,97360.38
2018-12-13T19:38:44.739Z,97359.16
2018-12-13T19:41:14.138Z,97367.21
2018-12-13T19:43:43.553Z,97365.39
2018-12-13T19:46:13.010Z,97362.20
2018-12-13T19:48:42.407Z,97366.81
2018-12-13T19:51:11.832Z,97370.26
2018-12-13T19:53:41.300Z,97370.84
2018-12-13T19:56:12.292Z,97377.08
2018-12-13T19:58:41.923Z,97374.88
2018-12-13T20:01:12.091Z,97375.63
2018-12-13T20:03:42.096Z,97372.47
2018-12-13T20:06:12.571Z,97374.29
2018-12-13T20:08:42.831Z,97379.19
2018-12-13T20:11:12.560Z,97380.53
2018-12-13T20:13:42.406Z,97380.06
2018-12-13T20:16:12.283Z,97387.14
2018-12-13T20:18:43.046Z,97384.96
2018-12-13T20:21:12.773Z,97386.30
2018-12-13T20:23:43.072Z,97388.02
2018-12-13T20:26:13.058Z,97388.88
2018-12-13T20:28:43.601Z,97390.70
2018-12-13T20:31:14.361Z,97390.81
2018-12-13T20:33:44.610Z,97384.45
2018-12-13T20:36:14.472Z,97388.41
2018-12-13T20:38:45.068Z,97383.41
2018-12-13T20:41:14.714Z,97387.91
2018-12-13T20:43:45.167Z,97386.48
2018-12-13T20:46:15.108Z,97385.61
2018-12-13T20:48:44.540Z,97382.92
2018-12-13T20:51:15.780Z,97381.37
2018-12-13T20:53:45.302Z,97386.27
2018-12-13T20:56:15.414Z,97384.92
2018-12-13T20:58:44.807Z,97389.24
2018-12-13T21:01:15.822Z,97387.42
2018-12-13T21:03:51.344Z,97387.31
2018-12-13T21:06:22.037Z,97394.91
2018-12-13T21:08:51.496Z,97390.48
2018-12-13T21:11:22.496Z,97396.25
2018-12-13T21:13:51.916Z,97397.09
2018-12-13T21:16:21.441Z,97399.77
2018-12-13T21:18:50.875Z,97394.80
2018-12-13T21:21:20.280Z,97401.87
2018-12-13T21:23:51.304Z,97401.80
2018-12-13T21:26:20.731Z,97402.16
2018-12-13T21:28:50.116Z,97401.22
2018-12-13T21:31:19.532Z,97403.40
2018-12-13T21:33:48.941Z,97405.03
2018-12-13T21:36:18.312Z,97401.11
2018-12-13T21:38:47.709Z,97396.42
2018-12-13T21:41:17.160Z,97406.77
2018-12-13T21:43:46.592Z,97404.92
2018-12-13T21:46:15.984Z,97401.29
2018-12-13T21:48:46.862Z,97402.63
2018-12-13T21:51:16.482Z,97396.27
2018-12-13T21:53:45.933Z,97395.44
2018-12-13T21:56:15.388Z,97396.39
2018-12-13T21:58:45.473Z,97400.30
2018-12-13T22:01:14.880Z,97395.44
2018-12-13T22:03:44.814Z,97399.55
2018-12-13T22:06:15.821Z,97392.47
2018-12-13T22:08:54.979Z,97390.25
2018-12-13T22:11:27.151Z,97396.09
2018-12-13T22:13:56.568Z,97392.06
2018-12-13T22:16:25.895Z,97396.09
2018-12-13T22:18:55.282Z,97396.09
2018-12-13T22:21:24.628Z,97398.20
2018-12-13T22:23:53.996Z,97401.40
2018-12-13T22:26:23.344Z,97399.55
2018-12-13T22:28:52.832Z,97398.71
2018-12-13T22:31:22.160Z,97392.36
2018-12-13T22:33:51.541Z,97388.44
2018-12-13T22:36:20.931Z,97392.83
2018-12-13T22:38:50.322Z,97388.44
2018-12-13T22:41:26.108Z,97390.72
2018-12-13T22:43:51.519Z,97390.25
2018-12-13T22:46:20.948Z,97395.73
2018-12-13T22:48:53.917Z,97395.34
2018-12-13T22:51:23.631Z,97392.18
2018-12-13T22:53:53.323Z,97397.08
2018-12-13T22:56:24.033Z,97395.73
2018-12-13T22:58:53.564Z,97393.92
2018-12-13T23:01:26.160Z,97385.34
2018-12-13T23:03:56.073Z,97385.45
2018-12-13T23:06:27.619Z,97387.67
2018-12-13T23:08:56.980Z,97385.86
2018-12-13T23:11:32.571Z,97388.15
2018-12-13T23:13:57.816Z,97382.41
2018-12-13T23:16:27.187Z,97381.91
2018-12-13T23:18:56.556Z,97377.88
2018-12-13T23:21:30.692Z,97375.77
2018-12-13T23:24:00.008Z,97377.62
2018-12-13T23:26:29.375Z,97368.03
2018-12-13T23:28:58.701Z,97378.20
2018-12-13T23:31:28.098Z,97375.11
2018-12-13T23:33:57.573Z,97370.61
2018-12-13T23:36:26.986Z,97372.06
2018-12-13T23:38:56.753Z,97368.50
2018-12-13T23:41:26.477Z,97366.30
2018-12-13T23:43:55.998Z,97375.34
2018-12-13T23:46:25.549Z,97376.75
2018-12-13T23:48:55.063Z,97372.83
2018-12-13T23:51:24.461Z,97368.33
2018-12-13T23:53:53.867Z,97362.67
2018-12-13T23:56:23.466Z,97364.87
2018-12-13T23:58:53.522Z,97364.98
